sensor_id;sensor_type;location;lat;lon;timestamp;pressure;altitude;pressure_sealevel;temperature;humidity
28428;BME280;15662;49.128;8.520;2024-03-08T00:00:13;100394.16;;;12.11;43.32
28428;BME280;15662;49.128;8.520;2024-03-08T00:02:44;100399.81;;;12.00;43.29
28428;BME280;15662;49.128;8.520;2024-03-08T00:05:13;100406.88;;;12.01;43.17
28428;BME280;15662;49.128;8.520;2024-03-08T00:07:42;100405.13;;;12.00;43.32
28428;BME280;15662;49.128;8.520;2024-03-08T00:10:12;100401.69;;;11.97;43.22
28428;BME280;15662;49.128;8.520;2024-03-08T00:12:43;100393.53;;;11.73;43.34
28428;BME280;15662;49.128;8.520;2024-03-08T00:15:12;100390.78;;;11.76;43.49
28428;BME280;15662;49.128;8.520;2024-03-08T00:17:44;100389.63;;;11.86;43.34
28428;BME280;15662;49.128;8.520;2024-03-08T00:20:11;100390.69;;;11.79;43.19
28428;BME280;15662;49.128;8.520;2024-03-08T00:22:41;100389.72;;;11.83;43.09
28428;BME280;15662;49.128;8.520;2024-03-08T00:25:08;100384.56;;;11.77;43.08
28428;BME280;15662;49.128;8.520;2024-03-08T00:27:41;100390.78;;;11.76;43.49
28428;BME280;15662;49.128;8.520;2024-03-08T00:30:09;100388.22;;;11.73;43.26
28428;BME280;15662;49.128;8.520;2024-03-08T00:32:38;100393.63;;;11.70;43.53
28428;BME280;15662;49.128;8.520;2024-03-08T00:35:05;100383.06;;;11.69;43.22
28428;BME280;15662;49.128;8.520;2024-03-08T00:37:34;100390.31;;;11.62;43.19
28428;BME280;15662;49.128;8.520;2024-03-08T00:40:02;100384.13;;;11.61;43.10
28428;BME280;15662;49.128;8.520;2024-03-08T00:42:30;100384.13;;;11.61;43.48
28428;BME280;15662;49.128;8.520;2024-03-08T00:44:57;100384.25;;;11.58;43.28
28428;BME280;15662;49.128;8.520;2024-03-08T00:47:25;100388.78;;;11.55;43.30
28428;BME280;15662;49.128;8.520;2024-03-08T00:49:52;100370.31;;;11.50;43.56
28428;BME280;15662;49.128;8.520;2024-03-08T00:52:20;100371.31;;;11.48;43.24
28428;BME280;15662;49.128;8.520;2024-03-08T00:54:47;100382.69;;;11.51;43.32
28428;BME280;15662;49.128;8.520;2024-03-08T00:57:14;100378.34;;;11.49;43.22
28428;BME280;15662;49.128;8.520;2024-03-08T00:59:41;100370.50;;;11.44;43.41
28428;BME280;15662;49.128;8.520;2024-03-08T01:02:10;100362.63;;;11.41;43.37
28428;BME280;15662;49.128;8.520;2024-03-08T01:04:37;100367.06;;;11.41;43.16
28428;BME280;15662;49.128;8.520;2024-03-08T01:07:04;100365.38;;;11.38;43.45
28428;BME280;15662;49.128;8.520;2024-03-08T01:09:32;100364.47;;;11.39;43.35
28428;BME280;15662;49.128;8.520;2024-03-08T01:11:59;100367.13;;;11.39;43.39
28428;BME280;15662;49.128;8.520;2024-03-08T01:14:28;100357.44;;;11.36;43.18
28428;BME280;15662;49.128;8.520;2024-03-08T01:16:58;100359.28;;;11.34;43.20
28428;BME280;15662;49.128;8.520;2024-03-08T01:19:25;100346.09;;;11.31;43.18
28428;BME280;15662;49.128;8.520;2024-03-08T01:21:52;100343.50;;;11.30;43.06
28428;BME280;15662;49.128;8.520;2024-03-08T01:24:22;100339.13;;;11.29;43.38
28428;BME280;15662;49.128;8.520;2024-03-08T01:26:50;100332.09;;;11.26;43.34
28428;BME280;15662;49.128;8.520;2024-03-08T01:29:17;100330.41;;;11.24;43.36
28428;BME280;15662;49.128;8.520;2024-03-08T01:31:44;100326.97;;;11.20;43.51
28428;BME280;15662;49.128;8.520;2024-03-08T01:34:11;100320.88;;;11.18;43.52
28428;BME280;15662;49.128;8.520;2024-03-08T01:36:38;100318.22;;;11.17;43.32
28428;BME280;15662;49.128;8.520;2024-03-08T01:39:05;100313.97;;;11.11;43.42
28428;BME280;15662;49.128;8.520;2024-03-08T01:41:36;100320.34;;;11.05;43.49
28428;BME280;15662;49.128;8.520;2024-03-08T01:44:04;100325.63;;;11.05;43.55
28428;BME280;15662;49.128;8.520;2024-03-08T01:46:35;100318.69;;;11.01;43.57
28428;BME280;15662;49.128;8.520;2024-03-08T01:49:02;100301.22;;;10.94;43.65
28428;BME280;15662;49.128;8.520;2024-03-08T01:51:30;100319.66;;;10.97;43.65
28428;BME280;15662;49.128;8.520;2024-03-08T01:53:59;100314.47;;;10.94;43.67
28428;BME280;15662;49.128;8.520;2024-03-08T01:56:29;100315.41;;;10.92;43.80
28428;BME280;15662;49.128;8.520;2024-03-08T01:58:59;100305.03;;;10.84;43.74
28428;BME280;15662;49.128;8.520;2024-03-08T02:01:28;100305.03;;;10.84;43.70
28428;BME280;15662;49.128;8.520;2024-03-08T02:03:55;100296.16;;;10.85;43.74
28428;BME280;15662;49.128;8.520;2024-03-08T02:06:22;100297.94;;;10.84;43.58
28428;BME280;15662;49.128;8.520;2024-03-08T02:08:50;100289.16;;;10.82;43.72
28428;BME280;15662;49.128;8.520;2024-03-08T02:11:17;100276.94;;;10.77;43.72
28428;BME280;15662;49.128;8.520;2024-03-08T02:13:45;100275.19;;;10.76;43.74
28428;BME280;15662;49.128;8.520;2024-03-08T02:16:13;100276.94;;;10.77;43.54
28428;BME280;15662;49.128;8.520;2024-03-08T02:18:46;100279.59;;;10.77;43.76
28428;BME280;15662;49.128;8.520;2024-03-08T02:21:14;100277.84;;;10.76;43.57
28428;BME280;15662;49.128;8.520;2024-03-08T02:23:45;100272.69;;;10.71;43.63
28428;BME280;15662;49.128;8.520;2024-03-08T02:26:12;100272.69;;;10.71;43.76
28428;BME280;15662;49.128;8.520;2024-03-08T02:28:44;100273.50;;;10.73;43.68
28428;BME280;15662;49.128;8.520;2024-03-08T02:31:11;100265.59;;;10.72;43.62
28428;BME280;15662;49.128;8.520;2024-03-08T02:33:39;100270.91;;;10.72;43.54
28428;BME280;15662;49.128;8.520;2024-03-08T02:36:07;100264.78;;;10.70;43.48
28428;BME280;15662;49.128;8.520;2024-03-08T02:38:34;100267.50;;;10.67;43.48
28428;BME280;15662;49.128;8.520;2024-03-08T02:41:01;100256.97;;;10.64;43.34
28428;BME280;15662;49.128;8.520;2024-03-08T02:43:30;100256.91;;;10.67;43.59
28428;BME280;15662;49.128;8.520;2024-03-08T02:45:57;100259.47;;;10.70;43.29
28428;BME280;15662;49.128;8.520;2024-03-08T02:48:25;100257.75;;;10.67;43.62
28428;BME280;15662;49.128;8.520;2024-03-08T02:50:52;100258.75;;;10.63;43.47
28428;BME280;15662;49.128;8.520;2024-03-08T02:53:20;100244.88;;;10.53;43.53
28428;BME280;15662;49.128;8.520;2024-03-08T02:55:47;100237.03;;;10.50;43.38
28428;BME280;15662;49.128;8.520;2024-03-08T02:58:15;100239.72;;;10.49;43.44
28428;BME280;15662;49.128;8.520;2024-03-08T03:00:42;100245.94;;;10.48;43.48
28428;BME280;15662;49.128;8.520;2024-03-08T03:03:12;100240.72;;;10.45;43.56
28428;BME280;15662;49.128;8.520;2024-03-08T03:05:39;100251.28;;;10.46;43.49
28428;BME280;15662;49.128;8.520;2024-03-08T03:08:14;100243.38;;;10.45;43.51
28428;BME280;15662;49.128;8.520;2024-03-08T03:10:44;100234.59;;;10.43;43.56
28428;BME280;15662;49.128;8.520;2024-03-08T03:13:11;100239.06;;;10.41;43.49
28428;BME280;15662;49.128;8.520;2024-03-08T03:15:39;100238.22;;;10.39;43.54
28428;BME280;15662;49.128;8.520;2024-03-08T03:18:08;100240.00;;;10.38;43.59
28428;BME280;15662;49.128;8.520;2024-03-08T03:20:36;100235.69;;;10.36;43.57
28428;BME280;15662;49.128;8.520;2024-03-08T03:23:12;100238.41;;;10.32;43.60
28428;BME280;15662;49.128;8.520;2024-03-08T03:25:47;100229.78;;;10.24;43.66
28428;BME280;15662;49.128;8.520;2024-03-08T03:28:14;100229.84;;;10.21;43.63
28428;BME280;15662;49.128;8.520;2024-03-08T03:30:45;100217.66;;;10.14;43.67
28428;BME280;15662;49.128;8.520;2024-03-08T03:33:13;100220.34;;;10.13;43.65
28428;BME280;15662;49.128;8.520;2024-03-08T03:35:42;100229.16;;;10.13;43.64
28428;BME280;15662;49.128;8.520;2024-03-08T03:38:11;100219.47;;;10.12;43.79
28428;BME280;15662;49.128;8.520;2024-03-08T03:40:41;100218.75;;;10.07;43.63
28428;BME280;15662;49.128;8.520;2024-03-08T03:43:08;100217.81;;;10.08;43.55
28428;BME280;15662;49.128;8.520;2024-03-08T03:45:39;100218.75;;;10.07;43.76
28428;BME280;15662;49.128;8.520;2024-03-08T03:48:07;100220.59;;;10.03;43.96
28428;BME280;15662;49.128;8.520;2024-03-08T03:50:38;100212.00;;;9.95;43.78
28428;BME280;15662;49.128;8.520;2024-03-08T03:53:07;100205.84;;;9.93;43.88
28428;BME280;15662;49.128;8.520;2024-03-08T03:55:35;100208.44;;;9.95;43.99
28428;BME280;15662;49.128;8.520;2024-03-08T03:58:05;100211.16;;;9.93;44.01
28428;BME280;15662;49.128;8.520;2024-03-08T04:00:33;100207.69;;;9.90;43.94
28428;BME280;15662;49.128;8.520;2024-03-08T04:03:00;100207.78;;;9.87;43.86
28428;BME280;15662;49.128;8.520;2024-03-08T04:05:29;100199.84;;;9.87;44.13
28428;BME280;15662;49.128;8.520;2024-03-08T04:07:56;100196.44;;;9.81;43.98
28428;BME280;15662;49.128;8.520;2024-03-08T04:10:24;100191.28;;;9.77;44.03
28428;BME280;15662;49.128;8.520;2024-03-08T04:12:51;100187.75;;;9.76;44.10
28428;BME280;15662;49.128;8.520;2024-03-08T04:15:18;100192.22;;;9.74;44.23
28428;BME280;15662;49.128;8.520;2024-03-08T04:17:45;100192.31;;;9.70;44.05
28428;BME280;15662;49.128;8.520;2024-03-08T04:20:13;100188.81;;;9.69;44.07
28428;BME280;15662;49.128;8.520;2024-03-08T04:22:42;100195.00;;;9.68;44.19
28428;BME280;15662;49.128;8.520;2024-03-08T04:25:11;100179.41;;;9.57;44.28
28428;BME280;15662;49.128;8.520;2024-03-08T04:27:38;100188.25;;;9.56;44.16
28428;BME280;15662;49.128;8.520;2024-03-08T04:30:06;100183.75;;;9.60;44.12
28428;BME280;15662;49.128;8.520;2024-03-08T04:32:36;100197.94;;;9.57;44.45
28428;BME280;15662;49.128;8.520;2024-03-08T04:35:05;100193.50;;;9.58;44.39
28428;BME280;15662;49.128;8.520;2024-03-08T04:37:32;100175.91;;;9.55;44.48
28428;BME280;15662;49.128;8.520;2024-03-08T04:40:00;100179.41;;;9.57;44.18
28428;BME280;15662;49.128;8.520;2024-03-08T04:42:28;100175.03;;;9.56;44.18
28428;BME280;15662;49.128;8.520;2024-03-08T04:44:57;100169.69;;;9.58;44.53
28428;BME280;15662;49.128;8.520;2024-03-08T04:47:25;100174.16;;;9.56;44.28
28428;BME280;15662;49.128;8.520;2024-03-08T04:49:52;100174.97;;;9.58;44.26
28428;BME280;15662;49.128;8.520;2024-03-08T04:52:20;100176.81;;;9.56;44.49
28428;BME280;15662;49.128;8.520;2024-03-08T04:54:49;100176.81;;;9.56;44.37
28428;BME280;15662;49.128;8.520;2024-03-08T04:57:17;100175.03;;;9.56;44.21
28428;BME280;15662;49.128;8.520;2024-03-08T04:59:47;100168.88;;;9.54;44.33
28428;BME280;15662;49.128;8.520;2024-03-08T05:02:15;100172.41;;;9.55;44.17
28428;BME280;15662;49.128;8.520;2024-03-08T05:04:42;100161.91;;;9.52;44.04
28428;BME280;15662;49.128;8.520;2024-03-08T05:07:11;100159.44;;;9.46;44.57
28428;BME280;15662;49.128;8.520;2024-03-08T05:09:38;100163.91;;;9.42;44.30
28428;BME280;15662;49.128;8.520;2024-03-08T05:12:07;100163.06;;;9.40;44.75
28428;BME280;15662;49.128;8.520;2024-03-08T05:14:35;100163.16;;;9.37;44.37
28428;BME280;15662;49.128;8.520;2024-03-08T05:17:02;100157.97;;;9.33;44.47
28428;BME280;15662;49.128;8.520;2024-03-08T05:19:29;100162.41;;;9.30;44.83
28428;BME280;15662;49.128;8.520;2024-03-08T05:22:01;100155.50;;;9.25;44.80
28428;BME280;15662;49.128;8.520;2024-03-08T05:24:28;100158.13;;;9.25;44.86
28428;BME280;15662;49.128;8.520;2024-03-08T05:26:57;100148.53;;;9.21;44.46
28428;BME280;15662;49.128;8.520;2024-03-08T05:29:24;100159.16;;;9.19;44.52
28428;BME280;15662;49.128;8.520;2024-03-08T05:31:52;100160.03;;;9.20;44.92
28428;BME280;15662;49.128;8.520;2024-03-08T05:34:21;100154.81;;;9.17;44.56
28428;BME280;15662;49.128;8.520;2024-03-08T05:36:49;100154.03;;;9.13;44.81
28428;BME280;15662;49.128;8.520;2024-03-08T05:39:18;100160.19;;;9.14;44.99
28428;BME280;15662;49.128;8.520;2024-03-08T05:41:47;100148.78;;;9.10;45.29
28428;BME280;15662;49.128;8.520;2024-03-08T05:44:15;100147.09;;;9.08;44.88
28428;BME280;15662;49.128;8.520;2024-03-08T05:46:44;100153.16;;;9.11;44.69
28428;BME280;15662;49.128;8.520;2024-03-08T05:49:12;100155.84;;;9.10;45.11
28428;BME280;15662;49.128;8.520;2024-03-08T05:51:41;100150.56;;;9.10;45.23
28428;BME280;15662;49.128;8.520;2024-03-08T05:54:11;100147.09;;;9.08;45.04
28428;BME280;15662;49.128;8.520;2024-03-08T05:56:43;100138.53;;;8.96;45.23
28428;BME280;15662;49.128;8.520;2024-03-08T05:59:12;100142.84;;;9.00;45.34
28428;BME280;15662;49.128;8.520;2024-03-08T06:01:40;100152.50;;;9.03;45.28
28428;BME280;15662;49.128;8.520;2024-03-08T06:04:09;100152.50;;;9.03;45.32
28428;BME280;15662;49.128;8.520;2024-03-08T06:06:39;100148.13;;;9.00;45.03
28428;BME280;15662;49.128;8.520;2024-03-08T06:09:06;100146.34;;;9.02;45.02
28428;BME280;15662;49.128;8.520;2024-03-08T06:11:39;100147.22;;;9.03;45.47
28428;BME280;15662;49.128;8.520;2024-03-08T06:14:06;100147.16;;;9.04;45.17
28428;BME280;15662;49.128;8.520;2024-03-08T06:16:34;100135.00;;;8.97;45.40
28428;BME280;15662;49.128;8.520;2024-03-08T06:19:03;100135.72;;;9.04;45.22
28428;BME280;15662;49.128;8.520;2024-03-08T06:21:31;100132.16;;;9.05;44.99
28428;BME280;15662;49.128;8.520;2024-03-08T06:23:59;100144.47;;;9.06;45.29
28428;BME280;15662;49.128;8.520;2024-03-08T06:26:27;100149.75;;;9.08;45.14
28428;BME280;15662;49.128;8.520;2024-03-08T06:28:58;100150.91;;;8.94;45.34
28428;BME280;15662;49.128;8.520;2024-03-08T06:31:26;100138.47;;;8.99;45.46
28428;BME280;15662;49.128;8.520;2024-03-08T06:33:53;100155.06;;;9.06;45.57
28428;BME280;15662;49.128;8.520;2024-03-08T06:36:24;100152.34;;;9.09;45.83
28428;BME280;15662;49.128;8.520;2024-03-08T06:38:52;100146.09;;;9.13;45.36
28428;BME280;15662;49.128;8.520;2024-03-08T06:41:19;100139.84;;;9.16;45.76
28428;BME280;15662;49.128;8.520;2024-03-08T06:43:47;100147.66;;;9.20;45.33
28428;BME280;15662;49.128;8.520;2024-03-08T06:46:19;100146.78;;;9.21;45.77
28428;BME280;15662;49.128;8.520;2024-03-08T06:48:47;100145.88;;;9.22;45.84
28428;BME280;15662;49.128;8.520;2024-03-08T06:51:17;100148.41;;;9.27;45.60
28428;BME280;15662;49.128;8.520;2024-03-08T06:53:44;100138.59;;;9.30;45.81
28428;BME280;15662;49.128;8.520;2024-03-08T06:56:12;100145.66;;;9.32;45.91
28428;BME280;15662;49.128;8.520;2024-03-08T06:58:39;100140.28;;;9.35;46.01
28428;BME280;15662;49.128;8.520;2024-03-08T07:01:07;100135.84;;;9.37;46.04
28428;BME280;15662;49.128;8.520;2024-03-08T07:03:35;100134.88;;;9.39;46.06
28428;BME280;15662;49.128;8.520;2024-03-08T07:06:02;100142.66;;;9.45;46.16
28428;BME280;15662;49.128;8.520;2024-03-08T07:08:30;100140.81;;;9.49;45.93
28428;BME280;15662;49.128;8.520;2024-03-08T07:10:58;100138.09;;;9.52;45.87
28428;BME280;15662;49.128;8.520;2024-03-08T07:13:27;100138.88;;;9.55;46.34
28428;BME280;15662;49.128;8.520;2024-03-08T07:15:57;100133.75;;;9.49;46.33
28428;BME280;15662;49.128;8.520;2024-03-08T07:18:28;100140.59;;;9.58;46.27
28428;BME280;15662;49.128;8.520;2024-03-08T07:20:57;100128.09;;;9.63;46.22
28428;BME280;15662;49.128;8.520;2024-03-08T07:23:24;100111.47;;;9.58;46.35
28428;BME280;15662;49.128;8.520;2024-03-08T07:26:10;100122.81;;;9.63;46.40
28428;BME280;15662;49.128;8.520;2024-03-08T07:28:37;100119.09;;;9.70;46.10
28428;BME280;15662;49.128;8.520;2024-03-08T07:31:04;100126.03;;;9.74;46.27
28428;BME280;15662;49.128;8.520;2024-03-08T07:33:43;100120.75;;;9.74;46.33
28428;BME280;15662;49.128;8.520;2024-03-08T07:36:11;100122.47;;;9.77;46.49
28428;BME280;15662;49.128;8.520;2024-03-08T07:38:39;100118.81;;;9.81;46.45
28428;BME280;15662;49.128;8.520;2024-03-08T07:41:06;100109.16;;;9.78;46.26
28428;BME280;15662;49.128;8.520;2024-03-08T07:43:33;100120.44;;;9.85;46.40
28428;BME280;15662;49.128;8.520;2024-03-08T07:46:00;100108.13;;;9.84;46.45
28428;BME280;15662;49.128;8.520;2024-03-08T07:48:27;100108.00;;;9.90;46.49
28428;BME280;15662;49.128;8.520;2024-03-08T07:50:55;100108.69;;;9.97;46.62
28428;BME280;15662;49.128;8.520;2024-03-08T07:53:22;100114.78;;;9.99;46.59
28428;BME280;15662;49.128;8.520;2024-03-08T07:55:51;100112.28;;;9.94;46.41
28428;BME280;15662;49.128;8.520;2024-03-08T07:58:19;100110.25;;;10.04;46.60
28428;BME280;15662;49.128;8.520;2024-03-08T08:00:47;100110.13;;;10.08;46.53
28428;BME280;15662;49.128;8.520;2024-03-08T08:03:14;100111.78;;;10.13;46.59
28428;BME280;15662;49.128;8.520;2024-03-08T08:05:41;100104.56;;;10.18;46.57
28428;BME280;15662;49.128;8.520;2024-03-08T08:08:09;100097.41;;;10.21;46.54
28428;BME280;15662;49.128;8.520;2024-03-08T08:10:38;100087.63;;;10.23;46.57
28428;BME280;15662;49.128;8.520;2024-03-08T08:13:05;100101.50;;;10.33;46.40
28428;BME280;15662;49.128;8.520;2024-03-08T08:15:33;100106.53;;;10.42;46.32
28428;BME280;15662;49.128;8.520;2024-03-08T08:18:01;100102.22;;;10.40;46.17
28428;BME280;15662;49.128;8.520;2024-03-08T08:20:32;100098.66;;;10.41;46.34
28428;BME280;15662;49.128;8.520;2024-03-08T08:23:00;100095.03;;;10.43;46.38
28428;BME280;15662;49.128;8.520;2024-03-08T08:25:27;100090.56;;;10.45;46.33
28428;BME280;15662;49.128;8.520;2024-03-08T08:27:54;100083.47;;;10.46;46.33
28428;BME280;15662;49.128;8.520;2024-03-08T08:30:21;100088.66;;;10.49;46.23
28428;BME280;15662;49.128;8.520;2024-03-08T08:32:49;100080.78;;;10.47;46.20
28428;BME280;15662;49.128;8.520;2024-03-08T08:35:16;100078.13;;;10.47;46.20
28428;BME280;15662;49.128;8.520;2024-03-08T08:37:47;100081.63;;;10.49;46.23
28428;BME280;15662;49.128;8.520;2024-03-08T08:40:14;100084.22;;;10.51;46.23
28428;BME280;15662;49.128;8.520;2024-03-08T08:42:42;100078.00;;;10.52;46.40
28428;BME280;15662;49.128;8.520;2024-03-08T08:45:12;100090.25;;;10.56;46.34
28428;BME280;15662;49.128;8.520;2024-03-08T08:47:47;100079.63;;;10.56;46.16
28428;BME280;15662;49.128;8.520;2024-03-08T08:50:17;100072.56;;;10.56;46.33
28428;BME280;15662;49.128;8.520;2024-03-08T08:52:50;100071.56;;;10.61;46.28
28428;BME280;15662;49.128;8.520;2024-03-08T08:55:17;100075.72;;;10.68;46.28
28428;BME280;15662;49.128;8.520;2024-03-08T08:57:48;100080.88;;;10.74;46.30
28428;BME280;15662;49.128;8.520;2024-03-08T09:00:16;100070.94;;;10.80;45.98
28428;BME280;15662;49.128;8.520;2024-03-08T09:02:45;100059.34;;;10.83;46.08
28428;BME280;15662;49.128;8.520;2024-03-08T09:05:12;100077.81;;;10.86;46.09
28428;BME280;15662;49.128;8.520;2024-03-08T09:07:45;100065.34;;;10.90;45.88
28428;BME280;15662;49.128;8.520;2024-03-08T09:10:12;100065.44;;;10.87;45.82
28428;BME280;15662;49.128;8.520;2024-03-08T09:12:44;100065.50;;;10.83;46.08
28428;BME280;15662;49.128;8.520;2024-03-08T09:15:11;100065.19;;;10.94;46.12
28428;BME280;15662;49.128;8.520;2024-03-08T09:17:40;100049.09;;;11.00;45.71
28428;BME280;15662;49.128;8.520;2024-03-08T09:20:10;100051.66;;;11.03;45.73
28428;BME280;15662;49.128;8.520;2024-03-08T09:22:44;100056.78;;;11.08;45.56
28428;BME280;15662;49.128;8.520;2024-03-08T09:25:12;100046.28;;;11.05;45.48
28428;BME280;15662;49.128;8.520;2024-03-08T09:27:39;100052.31;;;11.10;45.46
28428;BME280;15662;49.128;8.520;2024-03-08T09:30:07;100037.19;;;11.12;45.30
28428;BME280;15662;49.128;8.520;2024-03-08T09:32:35;100040.56;;;11.17;45.49
28428;BME280;15662;49.128;8.520;2024-03-08T09:35:04;100043.97;;;11.21;45.57
28428;BME280;15662;49.128;8.520;2024-03-08T09:37:34;100049.22;;;11.22;45.16
28428;BME280;15662;49.128;8.520;2024-03-08T09:40:02;100045.56;;;11.26;45.30
28428;BME280;15662;49.128;8.520;2024-03-08T09:42:31;100044.75;;;11.24;45.17
28428;BME280;15662;49.128;8.520;2024-03-08T09:44:59;100037.22;;;11.37;45.42
28428;BME280;15662;49.128;8.520;2024-03-08T09:47:28;100030.69;;;11.47;45.31
28428;BME280;15662;49.128;8.520;2024-03-08T09:50:00;100046.28;;;11.56;45.25
28428;BME280;15662;49.128;8.520;2024-03-08T09:52:29;100019.72;;;11.58;44.77
28428;BME280;15662;49.128;8.520;2024-03-08T09:54:58;100039.72;;;11.67;44.95
28428;BME280;15662;49.128;8.520;2024-03-08T09:57:26;100034.31;;;11.70;44.94
28428;BME280;15662;49.128;8.520;2024-03-08T09:59:53;100027.16;;;11.72;44.65
28428;BME280;15662;49.128;8.520;2024-03-08T10:02:20;100027.00;;;11.76;44.79
28428;BME280;15662;49.128;8.520;2024-03-08T10:04:48;100019.03;;;11.76;44.71
28428;BME280;15662;49.128;8.520;2024-03-08T10:07:15;100026.63;;;11.87;44.77
28428;BME280;15662;49.128;8.520;2024-03-08T10:09:43;100016.94;;;11.86;44.41
28428;BME280;15662;49.128;8.520;2024-03-08T10:12:17;100022.31;;;11.84;44.54
28428;BME280;15662;49.128;8.520;2024-03-08T10:14:45;100022.25;;;11.86;44.46
28428;BME280;15662;49.128;8.520;2024-03-08T10:17:13;100010.78;;;11.85;44.43
28428;BME280;15662;49.128;8.520;2024-03-08T10:19:50;100019.16;;;11.98;44.42
28428;BME280;15662;49.128;8.520;2024-03-08T10:22:19;100003.25;;;11.97;44.24
28428;BME280;15662;49.128;8.520;2024-03-08T10:24:47;100011.13;;;12.00;44.18
28428;BME280;15662;49.128;8.520;2024-03-08T10:27:17;100008.31;;;12.04;44.13
28428;BME280;15662;49.128;8.520;2024-03-08T10:29:48;99990.50;;;12.06;44.12
28428;BME280;15662;49.128;8.520;2024-03-08T10:32:15;100002.13;;;12.04;44.34
28428;BME280;15662;49.128;8.520;2024-03-08T10:34:42;99984.16;;;12.10;44.78
28428;BME280;15662;49.128;8.520;2024-03-08T10:37:15;99991.31;;;12.32;44.37
28428;BME280;15662;49.128;8.520;2024-03-08T10:40:05;99989.72;;;12.50;44.38
28428;BME280;15662;49.128;8.520;2024-03-08T10:42:55;99979.50;;;12.61;44.18
28428;BME280;15662;49.128;8.520;2024-03-08T10:45:38;99974.91;;;12.66;43.68
28428;BME280;15662;49.128;8.520;2024-03-08T10:48:31;99979.31;;;12.65;43.71
28428;BME280;15662;49.128;8.520;2024-03-08T10:51:04;99973.28;;;12.62;43.67
28428;BME280;15662;49.128;8.520;2024-03-08T10:53:34;99974.91;;;12.66;43.65
28428;BME280;15662;49.128;8.520;2024-03-08T10:56:04;99967.47;;;12.52;43.68
28428;BME280;15662;49.128;8.520;2024-03-08T10:58:32;99983.25;;;12.57;43.74
28428;BME280;15662;49.128;8.520;2024-03-08T11:01:01;99973.16;;;12.65;43.56
28428;BME280;15662;49.128;8.520;2024-03-08T11:09:30;99967.34;;;12.77;43.45
28428;BME280;15662;49.128;8.520;2024-03-08T11:14:49;99950.66;;;12.94;43.42
28428;BME280;15662;49.128;8.520;2024-03-08T11:20:12;99957.81;;;13.14;43.38
28428;BME280;15662;49.128;8.520;2024-03-08T11:23:00;99947.63;;;13.25;42.99
28428;BME280;15662;49.128;8.520;2024-03-08T11:25:41;99940.34;;;13.29;43.33
28428;BME280;15662;49.128;8.520;2024-03-08T11:28:21;99946.13;;;13.38;42.86
28428;BME280;15662;49.128;8.520;2024-03-08T11:33:31;99938.09;;;13.40;42.76
28428;BME280;15662;49.128;8.520;2024-03-08T11:36:07;99944.22;;;13.42;42.39
28428;BME280;15662;49.128;8.520;2024-03-08T11:38:44;99947.81;;;13.41;42.35
28428;BME280;15662;49.128;8.520;2024-03-08T11:41:12;99940.97;;;13.35;42.31
28428;BME280;15662;49.128;8.520;2024-03-08T11:43:46;99938.34;;;13.34;42.42
28428;BME280;15662;49.128;8.520;2024-03-08T11:46:15;99938.34;;;13.34;42.44
28428;BME280;15662;49.128;8.520;2024-03-08T11:48:44;99931.28;;;13.33;42.35
28428;BME280;15662;49.128;8.520;2024-03-08T11:51:15;99925.22;;;13.29;42.14
28428;BME280;15662;49.128;8.520;2024-03-08T11:53:45;99917.59;;;13.22;42.31
28428;BME280;15662;49.128;8.520;2024-03-08T11:56:14;99911.59;;;13.16;42.34
28428;BME280;15662;49.128;8.520;2024-03-08T11:58:56;99909.66;;;13.20;42.03
28428;BME280;15662;49.128;8.520;2024-03-08T12:01:24;99904.53;;;13.15;41.95
28428;BME280;15662;49.128;8.520;2024-03-08T12:03:54;99910.19;;;13.08;42.06
28428;BME280;15662;49.128;8.520;2024-03-08T12:06:22;99897.19;;;13.00;42.46
28428;BME280;15662;49.128;8.520;2024-03-08T12:08:49;99898.09;;;13.01;42.31
28428;BME280;15662;49.128;8.520;2024-03-08T12:11:17;99890.03;;;13.02;42.33
28428;BME280;15662;49.128;8.520;2024-03-08T12:13:51;99882.13;;;13.01;42.14
28428;BME280;15662;49.128;8.520;2024-03-08T12:16:18;99886.34;;;13.05;42.38
28428;BME280;15662;49.128;8.520;2024-03-08T12:18:48;99891.63;;;13.06;42.31
28428;BME280;15662;49.128;8.520;2024-03-08T12:21:15;99884.50;;;13.07;42.40
28428;BME280;15662;49.128;8.520;2024-03-08T12:23:47;99874.72;;;13.07;42.27
28428;BME280;15662;49.128;8.520;2024-03-08T12:26:24;99877.19;;;13.12;42.06
28428;BME280;15662;49.128;8.520;2024-03-08T12:28:53;99876.72;;;13.02;42.25
28428;BME280;15662;49.128;8.520;2024-03-08T12:31:21;99861.75;;;13.00;42.14
28428;BME280;15662;49.128;8.520;2024-03-08T12:33:55;99856.44;;;13.00;42.26
28428;BME280;15662;49.128;8.520;2024-03-08T12:36:26;99866.28;;;12.98;42.36
28428;BME280;15662;49.128;8.520;2024-03-08T12:38:53;99849.59;;;12.94;42.26
28428;BME280;15662;49.128;8.520;2024-03-08T12:41:24;99849.53;;;12.96;42.16
28428;BME280;15662;49.128;8.520;2024-03-08T12:43:51;99851.97;;;13.00;42.20
28428;BME280;15662;49.128;8.520;2024-03-08T12:46:20;99841.13;;;13.05;42.20
28428;BME280;15662;49.128;8.520;2024-03-08T12:48:48;99840.06;;;13.09;42.31
28428;BME280;15662;49.128;8.520;2024-03-08T12:51:17;99826.84;;;13.07;42.02
28428;BME280;15662;49.128;8.520;2024-03-08T12:53:45;99826.47;;;13.15;42.19
28428;BME280;15662;49.128;8.520;2024-03-08T12:56:31;99826.56;;;13.13;41.89
28428;BME280;15662;49.128;8.520;2024-03-08T12:59:01;99815.91;;;13.13;42.28
28428;BME280;15662;49.128;8.520;2024-03-08T13:01:28;99810.47;;;13.16;42.38
28428;BME280;15662;49.128;8.520;2024-03-08T13:03:56;99815.47;;;13.24;42.28
28428;BME280;15662;49.128;8.520;2024-03-08T13:06:24;99786.19;;;13.24;42.27
28428;BME280;15662;49.128;8.520;2024-03-08T13:08:52;99800.09;;;13.31;42.24
28428;BME280;15662;49.128;8.520;2024-03-08T13:11:19;99791.16;;;13.32;42.13
28428;BME280;15662;49.128;8.520;2024-03-08T13:13:47;99785.00;;;13.31;42.00
28428;BME280;15662;49.128;8.520;2024-03-08T13:16:14;99779.50;;;13.34;42.28
28428;BME280;15662;49.128;8.520;2024-03-08T13:18:42;99775.00;;;13.36;42.14